createdAt,value
2022-10-02T00:00:56.911Z,1004.83
2022-10-02T00:05:57.656Z,1004.90
2022-10-02T00:10:58.562Z,1004.98
2022-10-02T00:15:59.335Z,1004.99
2022-10-02T00:21:00.206Z,1005.02
2022-10-02T00:26:01.017Z,1005.00
2022-10-02T00:31:01.745Z,1005.00
2022-10-02T00:36:02.456Z,1005.05
2022-10-02T00:41:03.176Z,1005.06
2022-10-02T00:46:03.940Z,1005.11
2022-10-02T00:51:04.722Z,1005.11
2022-10-02T00:56:05.442Z,1005.13
2022-10-02T01:01:06.240Z,1005.13
2022-10-02T01:06:06.931Z,1005.17
2022-10-02T01:11:07.626Z,1005.25
2022-10-02T01:16:08.455Z,1005.25
2022-10-02T01:21:09.176Z,1005.36
2022-10-02T01:26:09.940Z,1005.45
2022-10-02T01:31:10.831Z,1005.52
2022-10-02T01:36:11.709Z,1005.51
2022-10-02T01:41:12.474Z,1005.57
2022-10-02T01:46:13.201Z,1005.62
2022-10-02T01:51:13.847Z,1005.68
2022-10-02T01:56:14.749Z,1005.68
2022-10-02T02:01:15.592Z,1005.65
2022-10-02T02:06:16.469Z,1005.65
2022-10-02T02:11:17.138Z,1005.69
2022-10-02T02:16:18.066Z,1005.77
2022-10-02T02:21:21.955Z,1005.85
2022-10-02T02:26:19.427Z,1005.84
2022-10-02T02:31:20.295Z,1005.88
2022-10-02T02:36:21.062Z,1005.90
2022-10-02T02:41:21.876Z,1005.95
2022-10-02T02:46:22.747Z,1005.91
2022-10-02T02:51:23.546Z,1005.95
2022-10-02T02:56:24.408Z,1005.96
2022-10-02T03:01:25.159Z,1006.01
2022-10-02T03:06:26.016Z,1006.03
2022-10-02T03:11:26.839Z,1006.04
2022-10-02T03:16:27.600Z,1006.06
2022-10-02T03:21:28.378Z,1006.13
2022-10-02T03:26:29.032Z,1006.17
2022-10-02T03:31:29.976Z,1006.15
2022-10-02T03:36:30.818Z,1006.14
2022-10-02T03:41:31.638Z,1006.14
2022-10-02T03:46:32.521Z,1006.19
2022-10-02T03:51:33.257Z,1006.16
2022-10-02T03:56:34.395Z,1006.12
2022-10-02T04:01:34.963Z,1006.11
2022-10-02T04:06:36.026Z,1006.14
2022-10-02T04:11:36.524Z,1006.11
2022-10-02T04:16:37.758Z,1006.11
2022-10-02T04:21:38.075Z,1006.09
2022-10-02T04:26:39.194Z,1006.22
2022-10-02T04:31:39.622Z,1006.24
2022-10-02T04:36:40.340Z,1006.22
2022-10-02T04:41:41.152Z,1006.19
2022-10-02T04:46:41.826Z,1006.30
2022-10-02T04:51:42.452Z,1006.28
2022-10-02T04:56:43.162Z,1006.33
2022-10-02T05:01:43.941Z,1006.33
2022-10-02T05:06:44.602Z,1006.34
2022-10-02T05:11:45.337Z,1006.31
2022-10-02T05:16:46.051Z,1006.32
2022-10-02T05:21:46.705Z,1006.36
2022-10-02T05:26:47.377Z,1006.38
2022-10-02T05:31:48.213Z,1006.49
2022-10-02T05:36:48.868Z,1006.47
2022-10-02T05:41:49.606Z,1006.54
2022-10-02T05:46:50.499Z,1006.47
2022-10-02T05:51:51.133Z,1006.48
2022-10-02T05:56:51.842Z,1006.57
2022-10-02T06:01:52.520Z,1006.65
2022-10-02T06:06:53.318Z,1006.58
2022-10-02T06:11:53.961Z,1006.62
2022-10-02T06:16:54.799Z,1006.65
2022-10-02T06:21:55.499Z,1006.65
2022-10-02T06:27:03.168Z,1006.61
2022-10-02T06:31:56.926Z,1006.75
2022-10-02T06:36:57.610Z,1006.77
2022-10-02T06:41:58.305Z,1006.87
2022-10-02T06:46:59.013Z,1006.85
2022-10-02T06:51:59.797Z,1006.91
2022-10-02T06:57:00.469Z,1006.93
2022-10-02T07:02:01.225Z,1006.89
2022-10-02T07:07:01.875Z,1006.82
2022-10-02T07:12:02.545Z,1006.84
2022-10-02T07:17:03.235Z,1006.86
2022-10-02T07:22:20.219Z,1006.95
2022-10-02T07:27:05.480Z,1006.93
2022-10-02T07:32:05.166Z,1006.98
2022-10-02T07:37:05.863Z,1007.04
2022-10-02T07:42:06.633Z,1007.02
2022-10-02T07:47:07.312Z,1007.00
2022-10-02T07:52:07.967Z,1007.10
2022-10-02T07:57:10.001Z,1007.09
2022-10-02T08:02:09.330Z,1007.13
2022-10-02T08:07:10.052Z,1007.14
2022-10-02T08:12:10.699Z,1007.18
2022-10-02T08:17:11.391Z,1007.17
2022-10-02T08:22:12.027Z,1007.16
2022-10-02T08:27:12.918Z,1007.13
2022-10-02T08:32:13.594Z,1007.07
2022-10-02T08:37:14.178Z,1007.01
2022-10-02T08:42:14.842Z,1007.01
2022-10-02T08:47:15.511Z,1006.93
2022-10-02T08:52:16.192Z,1006.96
2022-10-02T08:57:16.843Z,1006.99
2022-10-02T09:02:17.565Z,1006.99
2022-10-02T09:07:18.322Z,1007.00
2022-10-02T09:12:18.978Z,1007.00
2022-10-02T09:17:19.642Z,1007.05
2022-10-02T09:22:20.358Z,1006.99
2022-10-02T09:27:20.979Z,1007.03
2022-10-02T09:32:21.839Z,1006.99
2022-10-02T09:37:22.679Z,1006.95
2022-10-02T09:42:23.541Z,1006.82
2022-10-02T09:47:24.355Z,1006.76
2022-10-02T09:52:25.158Z,1006.69
2022-10-02T09:57:25.955Z,1006.66
2022-10-02T10:02:27.544Z,1006.81
2022-10-02T10:07:27.354Z,1006.67
2022-10-02T10:12:28.172Z,1006.74
2022-10-02T10:17:28.991Z,1006.71
2022-10-02T10:22:34.969Z,1006.89
2022-10-02T10:27:30.169Z,1006.94
2022-10-02T10:32:30.785Z,1007.01
2022-10-02T10:37:31.443Z,1007.04
2022-10-02T10:42:44.733Z,1007.11
2022-10-02T10:47:33.707Z,1007.10
2022-10-02T10:52:33.396Z,1007.05
2022-10-02T10:57:34.017Z,1007.07
2022-10-02T11:02:34.701Z,1007.03
2022-10-02T11:07:35.371Z,1007.02
2022-10-02T11:12:36.029Z,1007.11
2022-10-02T11:17:36.746Z,1007.07
2022-10-02T11:22:37.414Z,1007.04
2022-10-02T11:27:38.058Z,1007.04
2022-10-02T11:32:38.715Z,1006.84
2022-10-02T11:37:39.372Z,1006.80
2022-10-02T11:42:40.102Z,1006.85
2022-10-02T11:47:40.833Z,1006.86
2022-10-02T11:52:45.927Z,1006.90
2022-10-02T11:57:43.052Z,1006.81
2022-10-02T12:02:42.826Z,1006.80
2022-10-02T12:07:43.515Z,1006.76
2022-10-02T12:12:44.228Z,1006.83
2022-10-02T12:17:44.915Z,1006.81
2022-10-02T12:22:45.624Z,1006.87
2022-10-02T12:27:46.372Z,1006.91
2022-10-02T12:32:47.205Z,1006.86
2022-10-02T12:37:47.876Z,1006.98
2022-10-02T12:42:48.533Z,1006.98
2022-10-02T12:47:49.277Z,1006.94
2022-10-02T12:52:50.089Z,1006.90
2022-10-02T12:57:57.703Z,1006.95
2022-10-02T13:03:01.806Z,1006.87
2022-10-02T13:07:53.057Z,1006.75
2022-10-02T13:12:52.795Z,1006.76
2022-10-02T13:17:53.406Z,1006.84
2022-10-02T13:22:54.112Z,1006.89
2022-10-02T13:27:54.902Z,1006.87
2022-10-02T13:32:55.839Z,1006.87
2022-10-02T13:37:56.611Z,1006.82
2022-10-02T13:42:57.556Z,1006.88
2022-10-02T13:47:58.198Z,1006.82
2022-10-02T13:52:58.948Z,1006.82
2022-10-02T13:57:59.807Z,1006.83
2022-10-02T14:03:00.683Z,1006.83
2022-10-02T14:08:01.458Z,1006.77
2022-10-02T14:13:02.181Z,1006.79
2022-10-02T14:18:02.881Z,1006.83
2022-10-02T14:23:04.549Z,1006.91
2022-10-02T14:28:04.185Z,1006.95
2022-10-02T14:33:04.803Z,1006.97
2022-10-02T14:38:05.506Z,1007.01
2022-10-02T14:43:06.151Z,1007.08
2022-10-02T14:48:06.985Z,1007.06
2022-10-02T14:53:07.732Z,1007.07
2022-10-02T14:58:08.418Z,1007.19
2022-10-02T15:03:10.051Z,1007.18
2022-10-02T15:08:09.685Z,1007.21
2022-10-02T15:13:10.527Z,1007.22
2022-10-02T15:18:11.209Z,1007.26
2022-10-02T15:23:11.857Z,1007.32
2022-10-02T15:28:35.408Z,1007.42
2022-10-02T15:33:14.123Z,1007.39
2022-10-02T15:38:13.764Z,1007.42
2022-10-02T15:43:14.489Z,1007.42
2022-10-02T15:48:15.194Z,1007.46
2022-10-02T15:53:15.849Z,1007.53
2022-10-02T15:58:16.506Z,1007.62
2022-10-02T16:03:17.248Z,1007.68
2022-10-02T16:08:17.926Z,1007.76
2022-10-02T16:13:18.669Z,1007.78
2022-10-02T16:18:19.321Z,1007.88
2022-10-02T16:23:20.002Z,1007.91
2022-10-02T16:28:20.885Z,1008.03
2022-10-02T16:33:21.669Z,1008.05
2022-10-02T16:38:22.346Z,1008.10
2022-10-02T16:43:23.083Z,1008.16
2022-10-02T16:48:23.754Z,1008.25
2022-10-02T16:53:24.529Z,1008.33
2022-10-02T16:58:25.223Z,1008.36
2022-10-02T17:03:25.915Z,1008.38
2022-10-02T17:08:26.751Z,1008.40
2022-10-02T17:13:27.504Z,1008.46
2022-10-02T17:18:28.305Z,1008.47
2022-10-02T17:23:29.160Z,1008.53
2022-10-02T17:28:30.215Z,1008.60
2022-10-02T17:33:35.215Z,1008.69
2022-10-02T17:38:31.123Z,1008.76
2022-10-02T17:43:31.881Z,1008.87
2022-10-02T17:48:32.792Z,1008.95
2022-10-02T17:53:36.836Z,1009.02
2022-10-02T17:58:34.703Z,1009.12
2022-10-02T18:03:35.204Z,1009.19
2022-10-02T18:08:35.635Z,1009.24
2022-10-02T18:13:36.364Z,1009.30
2022-10-02T18:18:37.144Z,1009.37
2022-10-02T18:23:37.863Z,1009.38
2022-10-02T18:28:38.570Z,1009.42
2022-10-02T18:33:39.313Z,1009.48
2022-10-02T18:38:40.047Z,1009.53
2022-10-02T18:43:40.802Z,1009.53
2022-10-02T18:48:41.534Z,1009.55
2022-10-02T18:53:42.318Z,1009.59
2022-10-02T18:58:43.083Z,1009.67
2022-10-02T19:03:43.778Z,1009.71
2022-10-02T19:08:44.683Z,1009.75
2022-10-02T19:13:45.485Z,1009.83
2022-10-02T19:18:46.236Z,1009.83
2022-10-02T19:23:49.221Z,1009.90
2022-10-02T19:28:47.629Z,1009.95
2022-10-02T19:33:48.405Z,1009.99
2022-10-02T19:38:49.291Z,1010.05
2022-10-02T19:43:50.089Z,1010.10
2022-10-02T19:48:51.048Z,1010.11
2022-10-02T19:53:51.495Z,1010.15
2022-10-02T19:58:51.883Z,1010.21
2022-10-02T20:03:52.901Z,1010.28
2022-10-02T20:09:00.079Z,1010.28
2022-10-02T20:13:53.746Z,1010.26
2022-10-02T20:18:54.474Z,1010.32
2022-10-02T20:23:55.236Z,1010.35
2022-10-02T20:28:56.048Z,1010.35
2022-10-02T20:33:56.704Z,1010.42
2022-10-02T20:38:57.654Z,1010.47
2022-10-02T20:43:58.039Z,1010.49
2022-10-02T20:49:13.505Z,1010.58
2022-10-02T20:54:00.332Z,1010.60
2022-10-02T20:59:00.291Z,1010.68
2022-10-02T21:04:01.111Z,1010.68
2022-10-02T21:09:01.919Z,1010.73
2022-10-02T21:14:02.743Z,1010.77
2022-10-02T21:19:03.422Z,1010.79
2022-10-02T21:24:04.252Z,1010.80
2022-10-02T21:29:05.010Z,1010.82
2022-10-02T21:34:05.986Z,1010.86
2022-10-02T21:39:06.278Z,1010.91
2022-10-02T21:44:07.041Z,1010.98
2022-10-02T21:49:07.877Z,1010.99
2022-10-02T21:54:08.682Z,1011.03
2022-10-02T21:59:09.406Z,1011.04
2022-10-02T22:04:10.130Z,1011.10
2022-10-02T22:09:10.995Z,1011.13
2022-10-02T22:14:11.694Z,1011.13
2022-10-02T22:19:14.720Z,1011.17
2022-10-02T22:24:14.224Z,1011.18
2022-10-02T22:29:14.190Z,1011.20
2022-10-02T22:34:14.412Z,1011.26
2022-10-02T22:39:15.172Z,1011.32
2022-10-02T22:44:15.835Z,1011.35
2022-10-02T22:49:16.611Z,1011.41
2022-10-02T22:54:17.330Z,1011.42
2022-10-02T22:59:18.058Z,1011.41
2022-10-02T23:04:18.796Z,1011.43
2022-10-02T23:09:19.493Z,1011.46
2022-10-02T23:14:20.234Z,1011.50
2022-10-02T23:19:20.913Z,1011.48
2022-10-02T23:24:21.688Z,1011.52
2022-10-02T23:29:22.435Z,1011.56
2022-10-02T23:34:23.195Z,1011.60
2022-10-02T23:39:23.909Z,1011.65
2022-10-02T23:44:24.762Z,1011.74
2022-10-02T23:49:25.456Z,1011.78
2022-10-02T23:54:26.324Z,1011.81
2022-10-02T23:59:27.131Z,1011.84
